Time;durP1;ratioP1;P1;durP2;ratioP2;P2;SDS_P1;SDS_P2;PMS_P1;PMS_P2;Temp;Humidity;BMP_temperature;BMP_pressure;BME280_temperature;BME280_humidity;BME280_pressure;Samples;Min_cycle;Max_cycle;Signal;HPM_P1;HPM_P2
2021/06/07 00:01:53;;;;;;;1.40;0.87;;;;;;;;;;5016245;28;20084;-78
2021/06/07 00:04:19;;;;;;;1.25;0.77;;;;;;;;;;4999911;28;20086;-78
2021/06/07 00:06:44;;;;;;;1.43;0.70;;;;;;;;;;5001395;28;20033;-78
2021/06/07 00:09:10;;;;;;;1.07;0.80;;;;;;;;;;4998160;28;20139;-78
2021/06/07 00:11:37;;;;;;;1.20;0.73;;;;;;;;;;5002223;28;20022;-78
2021/06/07 00:14:02;;;;;;;1.08;0.70;;;;;;;;;;4984699;28;20034;-78
2021/06/07 00:16:29;;;;;;;1.00;0.70;;;;;;;;;;5000560;28;20025;-78
2021/06/07 00:18:54;;;;;;;0.95;0.60;;;;;;;;;;5016427;28;20022;-78
2021/06/07 00:21:21;;;;;;;1.43;0.83;;;;;;;;;;4997455;28;20370;-78
2021/06/07 00:23:47;;;;;;;1.65;0.90;;;;;;;;;;4998392;28;20022;-78
2021/06/07 00:26:12;;;;;;;1.77;0.90;;;;;;;;;;4981636;28;20057;-78
2021/06/07 00:28:38;;;;;;;1.33;0.70;;;;;;;;;;5013769;28;20040;-78
2021/06/07 00:31:04;;;;;;;0.90;0.70;;;;;;;;;;4982203;28;20156;-78
2021/06/07 00:33:30;;;;;;;1.20;0.68;;;;;;;;;;4965978;28;20022;-78
2021/06/07 00:35:55;;;;;;;1.10;0.80;;;;;;;;;;4997801;28;20058;-78
2021/06/07 00:38:20;;;;;;;1.63;0.63;;;;;;;;;;4965333;28;20029;-78
2021/06/07 00:40:46;;;;;;;0.93;0.60;;;;;;;;;;4983371;28;20097;-78
2021/06/07 00:43:11;;;;;;;1.37;0.70;;;;;;;;;;5017615;28;20029;-78
2021/06/07 00:45:37;;;;;;;1.50;0.67;;;;;;;;;;4998258;28;20036;-78
2021/06/07 00:48:03;;;;;;;1.97;0.80;;;;;;;;;;5002688;28;20111;-78
2021/06/07 00:50:41;;;;;;;1.05;0.60;;;;;;;;;;4986059;28;20472;-78
2021/06/07 00:53:07;;;;;;;0.88;0.60;;;;;;;;;;4997989;28;20033;-78
2021/06/07 00:55:41;;;;;;;1.55;0.75;;;;;;;;;;4986212;28;20171;-78
2021/06/07 00:58:07;;;;;;;1.48;0.80;;;;;;;;;;4998980;28;20045;-78
2021/06/07 01:00:33;;;;;;;1.73;0.80;;;;;;;;;;4990240;28;20105;-78
2021/06/07 01:02:59;;;;;;;0.90;0.60;;;;;;;;;;4999666;28;20044;-78
2021/06/07 01:05:25;;;;;;;1.27;0.80;;;;;;;;;;5003525;28;20021;-78
2021/06/07 01:07:50;;;;;;;1.40;0.77;;;;;;;;;;5004264;28;20025;-78
2021/06/07 01:10:17;;;;;;;1.07;0.70;;;;;;;;;;4986780;28;20039;-78
2021/06/07 01:12:43;;;;;;;1.40;0.80;;;;;;;;;;5000301;28;20030;-78
2021/06/07 01:15:09;;;;;;;1.33;0.67;;;;;;;;;;4992821;28;20061;-78
2021/06/07 01:17:35;;;;;;;1.40;0.70;;;;;;;;;;5019973;28;20052;-78
2021/06/07 01:20:00;;;;;;;1.10;0.70;;;;;;;;;;5016228;28;20038;-78
2021/06/07 01:22:25;;;;;;;1.30;0.67;;;;;;;;;;5002274;28;20022;-78
2021/06/07 01:24:51;;;;;;;0.60;0.60;;;;;;;;;;5000498;28;20034;-78
2021/06/07 01:27:16;;;;;;;1.13;0.70;;;;;;;;;;4984539;28;20034;-78
2021/06/07 01:29:41;;;;;;;1.53;0.80;;;;;;;;;;5002562;28;20057;-78
2021/06/07 01:32:07;;;;;;;1.20;0.70;;;;;;;;;;4988949;28;20500;-78
2021/06/07 01:34:34;;;;;;;0.87;0.60;;;;;;;;;;5015424;28;20048;-78
2021/06/07 01:36:59;;;;;;;1.20;0.80;;;;;;;;;;5018405;28;20041;-78
2021/06/07 01:39:27;;;;;;;1.27;0.70;;;;;;;;;;4997370;28;20034;-78
2021/06/07 01:41:56;;;;;;;0.93;0.70;;;;;;;;;;5020062;28;20029;-78
2021/06/07 01:44:22;;;;;;;1.02;0.70;;;;;;;;;;4986216;28;20532;-78
2021/06/07 01:46:47;;;;;;;1.10;0.70;;;;;;;;;;4993320;28;20107;-78
2021/06/07 01:49:12;;;;;;;0.90;0.60;;;;;;;;;;4988144;28;20033;-78
2021/06/07 01:51:38;;;;;;;1.20;0.80;;;;;;;;;;4999785;28;20120;-78
2021/06/07 01:54:03;;;;;;;1.40;0.67;;;;;;;;;;5014805;28;20053;-78
2021/06/07 01:56:29;;;;;;;1.10;0.60;;;;;;;;;;5003177;28;20022;-78
2021/06/07 01:58:54;;;;;;;1.50;0.80;;;;;;;;;;5001345;28;20396;-78
2021/06/07 02:01:21;;;;;;;0.80;0.60;;;;;;;;;;4989132;28;20061;-78
2021/06/07 02:03:46;;;;;;;0.90;0.70;;;;;;;;;;4999865;28;20025;-78
2021/06/07 02:06:13;;;;;;;0.83;0.60;;;;;;;;;;5002585;28;20033;-78
2021/06/07 02:08:39;;;;;;;1.10;0.70;;;;;;;;;;5001524;28;20541;-78
2021/06/07 02:11:06;;;;;;;1.10;0.70;;;;;;;;;;4999608;28;20022;-78
2021/06/07 02:13:31;;;;;;;1.67;0.60;;;;;;;;;;4983700;28;20038;-78
2021/06/07 02:15:59;;;;;;;1.53;0.80;;;;;;;;;;4984843;28;20071;-78
2021/06/07 02:18:24;;;;;;;1.65;0.75;;;;;;;;;;5018571;28;20061;-78
2021/06/07 02:20:50;;;;;;;1.10;0.77;;;;;;;;;;4999130;28;20064;-78
2021/06/07 02:23:15;;;;;;;1.30;0.60;;;;;;;;;;4988919;28;20043;-78
2021/06/07 02:25:40;;;;;;;0.90;0.60;;;;;;;;;;4998728;28;20495;-78
2021/06/07 02:28:13;;;;;;;1.43;0.70;;;;;;;;;;5027254;28;20025;-78
2021/06/07 02:30:38;;;;;;;1.15;0.60;;;;;;;;;;5033969;28;20125;-78
2021/06/07 02:33:04;;;;;;;1.13;0.67;;;;;;;;;;5002799;28;20036;-78
2021/06/07 02:35:29;;;;;;;1.37;0.70;;;;;;;;;;5002773;28;20032;-78
2021/06/07 02:37:55;;;;;;;1.57;0.70;;;;;;;;;;4966797;28;20057;-78
2021/06/07 02:40:22;;;;;;;1.17;0.73;;;;;;;;;;4967004;28;20029;-78
2021/06/07 02:42:48;;;;;;;1.33;0.70;;;;;;;;;;4988343;28;20111;-78
2021/06/07 02:45:15;;;;;;;1.03;0.70;;;;;;;;;;5026460;28;20048;-78
2021/06/07 02:47:41;;;;;;;1.58;0.70;;;;;;;;;;4998048;28;20080;-78
2021/06/07 02:50:09;;;;;;;0.90;0.65;;;;;;;;;;5007003;28;20018;-78
2021/06/07 02:52:34;;;;;;;1.50;0.60;;;;;;;;;;4982576;28;20050;-78
2021/06/07 02:55:00;;;;;;;1.00;0.73;;;;;;;;;;5004377;28;20042;-78
2021/06/07 02:57:25;;;;;;;1.20;0.70;;;;;;;;;;4997153;28;20116;-78
2021/06/07 02:59:50;;;;;;;1.20;0.63;;;;;;;;;;4998536;28;20564;-78
2021/06/07 03:02:16;;;;;;;1.03;0.63;;;;;;;;;;5015194;28;20065;-78
2021/06/07 03:04:41;;;;;;;1.33;0.77;;;;;;;;;;5016268;28;20039;-78
2021/06/07 03:07:06;;;;;;;0.87;0.70;;;;;;;;;;5008471;28;20506;-78
2021/06/07 03:09:32;;;;;;;1.37;0.80;;;;;;;;;;5001562;28;20059;-78
2021/06/07 03:11:57;;;;;;;0.90;0.60;;;;;;;;;;5000683;28;20080;-75
2021/06/07 03:14:22;;;;;;;1.10;0.70;;;;;;;;;;4999404;28;20056;-75
2021/06/07 03:16:48;;;;;;;1.40;0.60;;;;;;;;;;4982740;28;20132;-75
2021/06/07 03:19:13;;;;;;;1.07;0.53;;;;;;;;;;4996449;28;20026;-75
2021/06/07 03:21:38;;;;;;;2.90;0.60;;;;;;;;;;4981766;28;20030;-75
2021/06/07 03:24:04;;;;;;;1.00;0.63;;;;;;;;;;4997659;28;20463;-75
2021/06/07 03:26:29;;;;;;;1.10;0.67;;;;;;;;;;5028353;28;20031;-75
2021/06/07 03:28:54;;;;;;;1.00;0.70;;;;;;;;;;4985672;28;20057;-75
2021/06/07 03:31:20;;;;;;;1.00;0.60;;;;;;;;;;5021600;28;20043;-75
2021/06/07 03:33:45;;;;;;;1.00;0.70;;;;;;;;;;4979736;28;20058;-75
2021/06/07 03:36:11;;;;;;;1.10;0.67;;;;;;;;;;4984076;28;20025;-75
2021/06/07 03:38:36;;;;;;;1.00;0.60;;;;;;;;;;4983065;28;20037;-75
2021/06/07 03:41:02;;;;;;;1.53;0.70;;;;;;;;;;4995690;28;20038;-75
2021/06/07 03:43:30;;;;;;;1.03;0.60;;;;;;;;;;4990100;28;20029;-75
2021/06/07 03:45:56;;;;;;;0.85;0.60;;;;;;;;;;5014756;28;20060;-75
2021/06/07 03:48:21;;;;;;;1.10;0.63;;;;;;;;;;4999088;28;20033;-75
2021/06/07 03:50:47;;;;;;;0.80;0.60;;;;;;;;;;4988603;28;20021;-75
2021/06/07 03:53:12;;;;;;;0.97;0.57;;;;;;;;;;4999166;28;20021;-75
2021/06/07 03:55:38;;;;;;;0.70;0.50;;;;;;;;;;5007530;28;20071;-75
2021/06/07 03:58:03;;;;;;;0.97;0.63;;;;;;;;;;4997693;28;20062;-75
2021/06/07 04:00:30;;;;;;;0.60;0.50;;;;;;;;;;4989944;28;20153;-75
2021/06/07 04:02:56;;;;;;;;;;;;;;;;;;4996424;28;20109;-75
2021/06/07 04:05:21;;;;;;;1.50;0.60;;;;;;;;;;5002916;28;20400;-75
2021/06/07 04:07:47;;;;;;;0.93;0.50;;;;;;;;;;4964668;28;20033;-75
2021/06/07 04:10:15;;;;;;;0.90;0.60;;;;;;;;;;5002161;28;20037;-75
2021/06/07 04:12:40;;;;;;;1.27;0.60;;;;;;;;;;4995724;28;20030;-75
2021/06/07 04:15:06;;;;;;;1.20;0.60;;;;;;;;;;4970748;28;20060;-75
2021/06/07 04:17:32;;;;;;;1.00;0.60;;;;;;;;;;4987705;28;20075;-75
2021/06/07 04:19:57;;;;;;;1.00;0.60;;;;;;;;;;4995061;28;20489;-75
2021/06/07 04:22:22;;;;;;;1.00;0.60;;;;;;;;;;5029572;28;20449;-75
2021/06/07 04:24:48;;;;;;;0.90;0.60;;;;;;;;;;5003553;28;20113;-75
2021/06/07 04:27:16;;;;;;;1.20;0.60;;;;;;;;;;4989300;28;20389;-75
2021/06/07 04:29:42;;;;;;;1.00;0.60;;;;;;;;;;4999505;28;20026;-75
2021/06/07 04:32:07;;;;;;;1.23;0.60;;;;;;;;;;4978291;28;20028;-75
2021/06/07 04:34:33;;;;;;;1.17;0.60;;;;;;;;;;4987638;28;20369;-76
2021/06/07 04:39:26;;;;;;;1.15;0.70;;;;;;;;;;5052023;28;20136;-79
2021/06/07 04:41:51;;;;;;;1.03;0.60;;;;;;;;;;5023645;28;20352;-79
2021/06/07 04:44:17;;;;;;;0.93;0.57;;;;;;;;;;4995051;28;20017;-79
2021/06/07 04:46:42;;;;;;;1.13;0.60;;;;;;;;;;5015656;28;20029;-79
2021/06/07 04:49:07;;;;;;;1.00;0.60;;;;;;;;;;5040091;28;20049;-79
2021/06/07 04:51:33;;;;;;;0.67;0.50;;;;;;;;;;5032234;28;20361;-78
2021/06/07 04:53:58;;;;;;;0.90;0.50;;;;;;;;;;5014202;28;20052;-78
2021/06/07 04:56:23;;;;;;;1.43;0.60;;;;;;;;;;5032998;28;20025;-78
2021/06/07 04:58:49;;;;;;;1.07;0.60;;;;;;;;;;5015743;28;20060;-79
2021/06/07 05:01:16;;;;;;;0.90;0.60;;;;;;;;;;5022170;28;20055;-78
2021/06/07 05:03:41;;;;;;;0.85;0.57;;;;;;;;;;5020765;28;20029;-78
2021/06/07 05:06:07;;;;;;;1.07;0.50;;;;;;;;;;5036375;28;20083;-79
2021/06/07 05:08:32;;;;;;;0.77;0.60;;;;;;;;;;5034460;28;20026;-78
2021/06/07 05:10:58;;;;;;;0.80;0.60;;;;;;;;;;4985598;28;20022;-78
2021/06/07 05:13:24;;;;;;;1.00;0.60;;;;;;;;;;5002853;28;20034;-78
2021/06/07 05:15:50;;;;;;;0.82;0.68;;;;;;;;;;5019605;28;20057;-78
2021/06/07 05:18:16;;;;;;;;;;;;;;;;;;5036328;28;20144;-79
2021/06/07 05:20:41;;;;;;;1.17;0.60;;;;;;;;;;5038280;28;20379;-79
2021/06/07 05:23:06;;;;;;;1.03;0.70;;;;;;;;;;5021875;28;20029;-78
2021/06/07 05:25:32;;;;;;;0.80;0.57;;;;;;;;;;5019975;28;20037;-79
2021/06/07 05:27:58;;;;;;;1.38;0.73;;;;;;;;;;5010758;28;20029;-79
2021/06/07 05:30:24;;;;;;;1.07;0.60;;;;;;;;;;5020000;28;20090;-78
2021/06/07 05:32:49;;;;;;;0.90;0.60;;;;;;;;;;5002108;28;20026;-78
2021/06/07 05:35:16;;;;;;;1.00;0.50;;;;;;;;;;5011835;28;20065;-78
2021/06/07 05:37:41;;;;;;;0.77;0.50;;;;;;;;;;5000898;28;20049;-78
2021/06/07 05:40:07;;;;;;;0.67;0.50;;;;;;;;;;5013467;28;20026;-78
2021/06/07 05:42:33;;;;;;;0.82;0.50;;;;;;;;;;5019180;28;20030;-79
2021/06/07 05:44:58;;;;;;;0.83;0.57;;;;;;;;;;5001406;28;20033;-78
2021/06/07 05:47:23;;;;;;;0.80;0.47;;;;;;;;;;5001422;28;20052;-78
2021/06/07 05:49:49;;;;;;;1.20;0.63;;;;;;;;;;5001185;28;20113;-78
2021/06/07 05:52:14;;;;;;;0.80;0.60;;;;;;;;;;5018478;28;20034;-79
2021/06/07 05:54:40;;;;;;;1.17;0.60;;;;;;;;;;5015027;28;20463;-78
2021/06/07 05:57:06;;;;;;;0.70;0.55;;;;;;;;;;5038055;28;20064;-78
2021/06/07 05:59:31;;;;;;;1.00;0.60;;;;;;;;;;5020179;28;20025;-78
2021/06/07 06:01:56;;;;;;;1.43;0.67;;;;;;;;;;5004913;28;20040;-78
2021/06/07 06:04:22;;;;;;;0.93;0.60;;;;;;;;;;5001334;28;20053;-78
2021/06/07 06:06:48;;;;;;;1.00;0.60;;;;;;;;;;5006071;28;20033;-78
2021/06/07 06:09:14;;;;;;;1.48;0.70;;;;;;;;;;5036142;28;20549;-78
2021/06/07 06:11:41;;;;;;;1.10;0.60;;;;;;;;;;5021511;28;20504;-78
2021/06/07 06:14:06;;;;;;;0.70;0.50;;;;;;;;;;5037659;28;20025;-78
2021/06/07 06:16:31;;;;;;;1.00;0.57;;;;;;;;;;5032237;28;20076;-78
2021/06/07 06:18:57;;;;;;;1.00;0.60;;;;;;;;;;5025439;28;20029;-78
2021/06/07 06:21:26;;;;;;;1.70;0.70;;;;;;;;;;5020806;28;20128;-78
2021/06/07 06:23:51;;;;;;;0.90;0.50;;;;;;;;;;5023799;28;20041;-78
2021/06/07 06:26:16;;;;;;;0.87;0.67;;;;;;;;;;5007230;28;20052;-78
2021/06/07 06:28:42;;;;;;;0.90;0.60;;;;;;;;;;5004948;28;20025;-78
2021/06/07 06:31:07;;;;;;;0.63;0.50;;;;;;;;;;5020589;28;20022;-78
2021/06/07 06:33:33;;;;;;;1.43;0.60;;;;;;;;;;5020194;28;20071;-78
2021/06/07 06:35:58;;;;;;;0.90;0.50;;;;;;;;;;5033796;28;20073;-79
2021/06/07 06:38:24;;;;;;;0.87;0.60;;;;;;;;;;5000644;28;20477;-79
2021/06/07 06:40:49;;;;;;;0.77;0.50;;;;;;;;;;5016581;28;20113;-79
2021/06/07 06:43:15;;;;;;;0.90;0.60;;;;;;;;;;5000390;28;20053;-79
2021/06/07 06:45:40;;;;;;;1.03;0.60;;;;;;;;;;5000456;28;20121;-79
2021/06/07 06:48:06;;;;;;;0.70;0.50;;;;;;;;;;5000340;28;20022;-79
2021/06/07 06:50:34;;;;;;;0.80;0.50;;;;;;;;;;4999989;28;20038;-79
2021/06/07 06:53:03;;;;;;;1.10;0.50;;;;;;;;;;5000652;28;20385;-79
2021/06/07 06:55:29;;;;;;;1.00;0.60;;;;;;;;;;5015955;28;20029;-79
2021/06/07 06:57:54;;;;;;;1.20;0.50;;;;;;;;;;5000336;28;20028;-79
2021/06/07 07:00:20;;;;;;;0.80;0.50;;;;;;;;;;4999142;28;20022;-79
2021/06/07 07:02:45;;;;;;;0.93;0.53;;;;;;;;;;4999428;28;20057;-79
2021/06/07 07:05:11;;;;;;;0.60;0.50;;;;;;;;;;4983966;28;20057;-79
2021/06/07 07:07:36;;;;;;;0.90;0.50;;;;;;;;;;5000660;28;20191;-79
2021/06/07 07:10:06;;;;;;;1.17;0.60;;;;;;;;;;4999828;28;20113;-79
2021/06/07 07:12:31;;;;;;;1.00;0.60;;;;;;;;;;4999586;28;20084;-79
2021/06/07 07:14:57;;;;;;;0.70;0.60;;;;;;;;;;5000507;28;20550;-78
2021/06/07 07:17:22;;;;;;;1.20;0.70;;;;;;;;;;5015653;28;20459;-79
2021/06/07 07:19:48;;;;;;;0.60;0.50;;;;;;;;;;4999495;28;20067;-79
2021/06/07 07:22:14;;;;;;;0.83;0.53;;;;;;;;;;5000609;28;20417;-79
2021/06/07 07:24:43;;;;;;;0.93;0.50;;;;;;;;;;5000059;28;20084;-79
2021/06/07 07:27:11;;;;;;;0.82;0.52;;;;;;;;;;5000217;28;20037;-79
2021/06/07 07:29:36;;;;;;;1.13;0.50;;;;;;;;;;4999341;28;20018;-79
2021/06/07 07:32:03;;;;;;;0.93;0.57;;;;;;;;;;5000334;28;20033;-79
2021/06/07 07:34:28;;;;;;;0.80;0.50;;;;;;;;;;4999457;28;20029;-79
2021/06/07 07:36:53;;;;;;;0.87;0.57;;;;;;;;;;4999911;28;20090;-79
2021/06/07 07:39:19;;;;;;;0.80;0.50;;;;;;;;;;4999503;28;20050;-79
2021/06/07 07:41:44;;;;;;;1.17;0.50;;;;;;;;;;5000844;28;20188;-78
2021/06/07 07:44:10;;;;;;;0.70;0.60;;;;;;;;;;4999538;28;20604;-78
2021/06/07 07:46:35;;;;;;;0.73;0.40;;;;;;;;;;5016025;28;20037;-78
2021/06/07 07:49:00;;;;;;;0.80;0.50;;;;;;;;;;5001294;28;20033;-78
2021/06/07 07:51:26;;;;;;;0.73;0.50;;;;;;;;;;5002162;28;20444;-78
2021/06/07 07:53:51;;;;;;;0.77;0.50;;;;;;;;;;5019141;28;20108;-78
2021/06/07 07:56:16;;;;;;;0.70;0.57;;;;;;;;;;5025849;28;20053;-78
2021/06/07 07:58:42;;;;;;;0.73;0.53;;;;;;;;;;5030404;28;20060;-79
2021/06/07 08:01:07;;;;;;;0.97;0.50;;;;;;;;;;5019426;28;20067;-78
2021/06/07 08:03:32;;;;;;;0.70;0.50;;;;;;;;;;5005881;28;20080;-78
2021/06/07 08:06:00;;;;;;;0.60;0.50;;;;;;;;;;5023231;28;20065;-79
2021/06/07 08:08:25;;;;;;;0.90;0.52;;;;;;;;;;5009453;28;20030;-78
2021/06/07 08:10:55;;;;;;;0.80;0.60;;;;;;;;;;5035696;28;20030;-78
2021/06/07 08:13:21;;;;;;;0.88;0.50;;;;;;;;;;5024018;28;20481;-78
2021/06/07 08:15:46;;;;;;;0.67;0.50;;;;;;;;;;5022941;28;20031;-78
2021/06/07 08:18:11;;;;;;;0.70;0.50;;;;;;;;;;5033132;28;20026;-78
2021/06/07 08:20:37;;;;;;;0.67;0.50;;;;;;;;;;5018391;28;20095;-78
2021/06/07 08:23:02;;;;;;;0.63;0.40;;;;;;;;;;5041228;28;20029;-78
2021/06/07 08:25:27;;;;;;;1.07;0.50;;;;;;;;;;5006636;28;20036;-78
2021/06/07 08:27:54;;;;;;;0.90;0.40;;;;;;;;;;5022603;28;20033;-78
2021/06/07 08:30:20;;;;;;;;;;;;;;;;;;5021135;28;20530;-78
2021/06/07 08:32:45;;;;;;;0.80;0.55;;;;;;;;;;5036676;28;19913;-78
2021/06/07 08:35:11;;;;;;;0.90;0.60;;;;;;;;;;5013601;28;20029;-78
2021/06/07 08:37:37;;;;;;;0.53;0.40;;;;;;;;;;5039367;28;20030;-78
2021/06/07 08:40:04;;;;;;;1.27;0.60;;;;;;;;;;5021477;28;20049;-78
2021/06/07 08:42:30;;;;;;;0.68;0.50;;;;;;;;;;5035877;28;20559;-78
2021/06/07 08:44:56;;;;;;;0.80;0.50;;;;;;;;;;5009100;28;20034;-78
2021/06/07 08:47:21;;;;;;;0.73;0.50;;;;;;;;;;5023134;28;20478;-78
2021/06/07 08:49:46;;;;;;;0.67;0.50;;;;;;;;;;5022955;28;20031;-78
2021/06/07 08:52:13;;;;;;;0.97;0.57;;;;;;;;;;5021938;28;20049;-78
2021/06/07 08:54:38;;;;;;;0.60;0.40;;;;;;;;;;5022263;28;20030;-78
2021/06/07 08:57:04;;;;;;;1.13;0.60;;;;;;;;;;5038258;28;20063;-78
2021/06/07 08:59:30;;;;;;;1.00;0.60;;;;;;;;;;5029518;28;20033;-78
2021/06/07 09:01:56;;;;;;;1.00;0.53;;;;;;;;;;5010636;28;20045;-78
2021/06/07 09:04:22;;;;;;;1.23;0.60;;;;;;;;;;5018779;28;20079;-78
2021/06/07 09:06:48;;;;;;;0.85;0.60;;;;;;;;;;5002648;28;20037;-78
2021/06/07 09:09:19;;;;;;;0.60;0.43;;;;;;;;;;5011084;28;20038;-78
2021/06/07 09:11:46;;;;;;;0.70;0.30;;;;;;;;;;5019751;28;20112;-78
2021/06/07 09:14:16;;;;;;;0.90;0.60;;;;;;;;;;5018954;28;20499;-78
2021/06/07 09:16:41;;;;;;;0.68;0.40;;;;;;;;;;5022154;28;20042;-79
2021/06/07 09:19:16;;;;;;;0.73;0.60;;;;;;;;;;5031247;28;20057;-78
2021/06/07 09:21:42;;;;;;;1.98;0.50;;;;;;;;;;5007296;28;20048;-78
2021/06/07 09:24:07;;;;;;;0.90;0.50;;;;;;;;;;5034448;28;20493;-78
2021/06/07 09:26:34;;;;;;;1.03;0.43;;;;;;;;;;5019723;28;20063;-78
2021/06/07 09:29:04;;;;;;;1.08;0.60;;;;;;;;;;5019510;28;20057;-78
2021/06/07 09:31:32;;;;;;;0.50;0.40;;;;;;;;;;5011854;28;20042;-77
2021/06/07 09:33:57;;;;;;;0.68;0.50;;;;;;;;;;5011631;28;20392;-77
2021/06/07 09:36:30;;;;;;;0.83;0.50;;;;;;;;;;5036358;28;20056;-78
2021/06/07 09:39:01;;;;;;;1.15;0.50;;;;;;;;;;5010731;28;20030;-77
2021/06/07 09:41:29;;;;;;;0.75;0.40;;;;;;;;;;5023937;28;20025;-77
2021/06/07 09:43:56;;;;;;;1.08;0.40;;;;;;;;;;5013343;28;20026;-78
2021/06/07 09:46:25;;;;;;;0.80;0.50;;;;;;;;;;5026266;28;20041;-78
2021/06/07 09:48:57;;;;;;;0.77;0.50;;;;;;;;;;5020003;28;20036;-78
2021/06/07 09:51:22;;;;;;;0.68;0.40;;;;;;;;;;5001804;28;20017;-77
2021/06/07 09:53:52;;;;;;;0.70;0.50;;;;;;;;;;5017482;28;20064;-77
2021/06/07 09:56:17;;;;;;;2.00;0.50;;;;;;;;;;5017830;28;20056;-77
2021/06/07 09:58:46;;;;;;;0.70;0.50;;;;;;;;;;5017336;28;20104;-78
2021/06/07 10:01:16;;;;;;;0.82;0.55;;;;;;;;;;5011947;28;20060;-78
2021/06/07 10:03:43;;;;;;;0.50;0.38;;;;;;;;;;5003436;28;20037;-78
2021/06/07 10:06:29;;;;;;;0.73;0.50;;;;;;;;;;5020057;28;20112;-78
2021/06/07 10:08:59;;;;;;;0.60;0.45;;;;;;;;;;5024429;28;20079;-78
2021/06/07 10:11:33;;;;;;;0.70;0.45;;;;;;;;;;5019327;28;20476;-78
2021/06/07 10:14:06;;;;;;;0.80;0.40;;;;;;;;;;5017653;28;20025;-78
2021/06/07 10:16:31;;;;;;;0.60;0.50;;;;;;;;;;5034399;28;20074;-78
2021/06/07 10:19:02;;;;;;;0.77;0.50;;;;;;;;;;5033228;28;20025;-78
2021/06/07 10:21:27;;;;;;;0.65;0.40;;;;;;;;;;5034623;28;20033;-78
2021/06/07 10:23:53;;;;;;;0.77;0.50;;;;;;;;;;5016194;28;20034;-78
2021/06/07 10:26:18;;;;;;;0.60;0.50;;;;;;;;;;4985254;28;20062;-78
2021/06/07 10:28:45;;;;;;;0.50;0.50;;;;;;;;;;5004895;28;20480;-78
2021/06/07 10:31:12;;;;;;;0.60;0.50;;;;;;;;;;4999081;28;20075;-78
2021/06/07 10:33:39;;;;;;;0.70;0.40;;;;;;;;;;5014372;28;20030;-78
2021/06/07 10:36:23;;;;;;;0.60;0.40;;;;;;;;;;5018233;28;20483;-78
2021/06/07 10:38:49;;;;;;;0.82;0.60;;;;;;;;;;5042877;22;20042;-77
2021/06/07 10:41:25;;;;;;;0.80;0.50;;;;;;;;;;5056693;28;20032;-77
2021/06/07 10:43:52;;;;;;;0.75;0.47;;;;;;;;;;5039298;28;20037;-78
2021/06/07 10:46:21;;;;;;;1.08;0.50;;;;;;;;;;5068641;28;20502;-77
2021/06/07 10:48:50;;;;;;;0.52;0.40;;;;;;;;;;5059563;28;20442;-78
2021/06/07 10:51:15;;;;;;;0.60;0.50;;;;;;;;;;5037013;28;20020;-78
2021/06/07 10:53:41;;;;;;;0.60;0.40;;;;;;;;;;5068228;28;20111;-78
2021/06/07 10:56:10;;;;;;;0.50;0.40;;;;;;;;;;5044743;28;20061;-77
2021/06/07 10:58:35;;;;;;;1.15;0.50;;;;;;;;;;5037608;28;20407;-78
2021/06/07 11:01:04;;;;;;;1.13;0.60;;;;;;;;;;5045274;28;20028;-78
2021/06/07 11:03:31;;;;;;;0.80;0.50;;;;;;;;;;5027093;28;20074;-78
2021/06/07 11:05:58;;;;;;;1.02;0.55;;;;;;;;;;5043706;28;20062;-77
2021/06/07 11:08:31;;;;;;;0.82;0.50;;;;;;;;;;5036186;28;20039;-77
2021/06/07 11:11:07;;;;;;;0.88;0.43;;;;;;;;;;5062655;28;20017;-77
2021/06/07 11:13:44;;;;;;;0.70;0.32;;;;;;;;;;5058424;28;20032;-77
2021/06/07 11:16:09;;;;;;;0.77;0.40;;;;;;;;;;5053363;28;20033;-78
2021/06/07 11:18:38;;;;;;;0.60;0.43;;;;;;;;;;5055436;28;20273;-77
2021/06/07 11:21:07;;;;;;;0.65;0.50;;;;;;;;;;5044520;28;20036;-77
2021/06/07 11:23:43;;;;;;;0.60;0.45;;;;;;;;;;5053328;28;20506;-77
2021/06/07 11:26:09;;;;;;;0.70;0.47;;;;;;;;;;5049022;28;20024;-77
2021/06/07 11:28:41;;;;;;;;;;;;;;;;;;5036988;28;20779;-77
2021/06/07 11:31:33;;;;;;;0.80;0.47;;;;;;;;;;5053672;28;19909;-77
2021/06/07 11:33:59;;;;;;;0.80;0.50;;;;;;;;;;5037516;28;20395;-77
2021/06/07 11:36:39;;;;;;;0.60;0.43;;;;;;;;;;5051931;28;20025;-77
2021/06/07 11:39:07;;;;;;;0.63;0.50;;;;;;;;;;5070524;28;20112;-77
2021/06/07 11:41:54;;;;;;;0.70;0.50;;;;;;;;;;5055910;28;20078;-77
2021/06/07 11:44:39;;;;;;;0.77;0.40;;;;;;;;;;5072211;28;20437;-78
2021/06/07 11:47:04;;;;;;;0.55;0.50;;;;;;;;;;5063723;28;20369;-78
2021/06/07 11:49:29;;;;;;;0.73;0.53;;;;;;;;;;5055371;28;20031;-77
2021/06/07 11:52:00;;;;;;;0.43;0.43;;;;;;;;;;5055031;28;20107;-77
2021/06/07 11:54:25;;;;;;;0.50;0.40;;;;;;;;;;5044094;28;20028;-77
2021/06/07 11:56:55;;;;;;;0.63;0.47;;;;;;;;;;5065280;28;20035;-77
2021/06/07 11:59:23;;;;;;;0.57;0.40;;;;;;;;;;5055567;28;20025;-77
2021/06/07 12:01:49;;;;;;;0.80;0.45;;;;;;;;;;5055084;28;20101;-77
2021/06/07 12:04:27;;;;;;;0.70;0.50;;;;;;;;;;5063457;28;20472;-77
2021/06/07 12:06:59;;;;;;;0.75;0.47;;;;;;;;;;5051719;28;20100;-78
2021/06/07 12:09:25;;;;;;;1.27;0.57;;;;;;;;;;5050836;28;20115;-77
2021/06/07 12:11:51;;;;;;;0.73;0.52;;;;;;;;;;5037894;28;20064;-78
2021/06/07 12:14:24;;;;;;;0.77;0.50;;;;;;;;;;5044478;28;20028;-78
2021/06/07 12:16:49;;;;;;;0.80;0.50;;;;;;;;;;5042949;28;20427;-78
2021/06/07 12:19:15;;;;;;;0.80;0.50;;;;;;;;;;5047122;28;20033;-78
2021/06/07 12:21:40;;;;;;;0.60;0.50;;;;;;;;;;5053045;28;20547;-78
2021/06/07 12:24:15;;;;;;;0.50;0.40;;;;;;;;;;5048036;28;20511;-78
2021/06/07 12:29:35;;;;;;;0.50;0.43;;;;;;;;;;5038053;28;20554;-78
2021/06/07 12:32:22;;;;;;;0.77;0.52;;;;;;;;;;5050573;28;20033;-77
2021/06/07 12:35:06;;;;;;;0.50;0.47;;;;;;;;;;5028764;28;20036;-77
2021/06/07 12:37:47;;;;;;;0.70;0.50;;;;;;;;;;5063410;28;20119;-78
2021/06/07 12:40:32;;;;;;;0.52;0.47;;;;;;;;;;5052966;28;20028;-78
2021/06/07 12:43:07;;;;;;;0.60;0.40;;;;;;;;;;5060585;28;20028;-78
2021/06/07 12:45:51;;;;;;;0.95;0.40;;;;;;;;;;5062742;28;20036;-78
2021/06/07 12:48:19;;;;;;;0.80;0.50;;;;;;;;;;5051704;28;20056;-78
2021/06/07 12:51:10;;;;;;;0.70;0.47;;;;;;;;;;5052404;28;20484;-78
2021/06/07 12:53:45;;;;;;;0.60;0.40;;;;;;;;;;5067588;28;20027;-77
2021/06/07 12:56:21;;;;;;;0.80;0.40;;;;;;;;;;5051430;28;20031;-77
2021/06/07 12:58:57;;;;;;;0.67;0.47;;;;;;;;;;5035876;28;20024;-78
2021/06/07 13:01:40;;;;;;;0.45;0.35;;;;;;;;;;5038463;28;20029;-78
2021/06/07 13:04:06;;;;;;;0.60;0.40;;;;;;;;;;5022230;28;20025;-78
2021/06/07 13:06:45;;;;;;;0.77;0.50;;;;;;;;;;5038341;28;20021;-77
2021/06/07 13:09:11;;;;;;;0.30;0.30;;;;;;;;;;5049765;28;20060;-78
2021/06/07 13:11:40;;;;;;;0.65;0.45;;;;;;;;;;5041572;28;20017;-77
2021/06/07 13:14:23;;;;;;;0.77;0.40;;;;;;;;;;5058033;28;20032;-77
2021/06/07 13:16:48;;;;;;;0.60;0.40;;;;;;;;;;5071746;28;20028;-77
2021/06/07 13:19:14;;;;;;;1.03;0.57;;;;;;;;;;5065466;28;20115;-78
2021/06/07 13:21:45;;;;;;;0.55;0.40;;;;;;;;;;5058027;28;20021;-77
2021/06/07 13:24:30;;;;;;;1.13;0.60;;;;;;;;;;5073023;28;20557;-78
2021/06/07 13:26:55;;;;;;;0.80;0.50;;;;;;;;;;5040256;28;20456;-78
2021/06/07 13:29:29;;;;;;;0.70;0.50;;;;;;;;;;5055023;28;20108;-78
2021/06/07 13:32:11;;;;;;;0.60;0.47;;;;;;;;;;5053676;28;20032;-78
2021/06/07 13:34:46;;;;;;;0.70;0.50;;;;;;;;;;5054980;28;20401;-77
2021/06/07 13:37:21;;;;;;;1.05;0.45;;;;;;;;;;5054234;28;20032;-77
2021/06/07 13:40:27;;;;;;;0.50;0.30;;;;;;;;;;5055166;28;20405;-77
2021/06/07 13:42:57;;;;;;;0.93;0.50;;;;;;;;;;5037527;28;20029;-77
2021/06/07 13:45:28;;;;;;;1.02;0.50;;;;;;;;;;5038217;28;20438;-77
2021/06/07 13:47:55;;;;;;;0.65;0.50;;;;;;;;;;5055498;28;20021;-77
2021/06/07 13:50:24;;;;;;;0.45;0.30;;;;;;;;;;5037691;28;20025;-77
2021/06/07 13:52:50;;;;;;;0.47;0.43;;;;;;;;;;5037912;28;20028;-77
2021/06/07 13:55:25;;;;;;;1.20;0.50;;;;;;;;;;5055217;28;20028;-77
2021/06/07 13:57:55;;;;;;;0.73;0.50;;;;;;;;;;5055138;28;20029;-77
2021/06/07 14:00:21;;;;;;;0.60;0.50;;;;;;;;;;5037871;28;20025;-77
2021/06/07 14:02:46;;;;;;;0.80;0.57;;;;;;;;;;5037408;28;20035;-77
2021/06/07 14:05:11;;;;;;;0.67;0.40;;;;;;;;;;5020721;28;20511;-77
2021/06/07 14:07:37;;;;;;;0.77;0.50;;;;;;;;;;5037009;28;20108;-77
2021/06/07 14:10:03;;;;;;;0.40;0.40;;;;;;;;;;5037267;28;20032;-78
2021/06/07 14:12:28;;;;;;;1.48;0.47;;;;;;;;;;5021245;28;20021;-78
2021/06/07 14:14:54;;;;;;;1.30;0.50;;;;;;;;;;5055006;28;20559;-78
2021/06/07 14:17:19;;;;;;;0.80;0.60;;;;;;;;;;5037052;28;20102;-77
2021/06/07 14:19:44;;;;;;;0.60;0.50;;;;;;;;;;5036881;28;20080;-78
2021/06/07 14:24:38;;;;;;;0.70;0.47;;;;;;;;;;5037306;28;20056;-77
2021/06/07 14:27:07;;;;;;;1.05;0.50;;;;;;;;;;5053367;28;20033;-77
2021/06/07 14:29:35;;;;;;;0.70;0.50;;;;;;;;;;5020221;28;20476;-77
2021/06/07 14:32:00;;;;;;;0.85;0.50;;;;;;;;;;5037354;28;20113;-78
2021/06/07 14:34:26;;;;;;;0.90;0.53;;;;;;;;;;5037001;28;20111;-78
2021/06/07 14:36:51;;;;;;;0.40;0.30;;;;;;;;;;5053470;28;20056;-77
2021/06/07 14:39:17;;;;;;;0.80;0.50;;;;;;;;;;5053055;28;20112;-77
2021/06/07 14:41:43;;;;;;;1.20;0.50;;;;;;;;;;5053257;28;20033;-78
2021/06/07 14:44:08;;;;;;;0.70;0.60;;;;;;;;;;5036671;28;20468;-78
2021/06/07 14:46:33;;;;;;;0.60;0.40;;;;;;;;;;5039541;28;20078;-78
2021/06/07 14:48:59;;;;;;;1.10;0.60;;;;;;;;;;5060438;28;20388;-78
2021/06/07 14:51:25;;;;;;;0.90;0.57;;;;;;;;;;5066733;28;20160;-78
2021/06/07 14:53:50;;;;;;;0.90;0.57;;;;;;;;;;5022433;28;20494;-78